sensor_id;sensor_type;location;lat;lon;timestamp;P1;durP1;ratioP1;P2;durP2;ratioP2
52946;SDS011;45776;40.400;17.260;2022-09-09T00:04:30;18.73;;;6.78;;
52946;SDS011;45776;40.400;17.260;2022-09-09T00:09:52;21.33;;;7.40;;
52946;SDS011;45776;40.400;17.260;2022-09-09T00:15:14;19.90;;;6.85;;
52946;SDS011;45776;40.400;17.260;2022-09-09T00:17:58;27.75;;;6.88;;
52946;SDS011;45776;40.400;17.260;2022-09-09T00:21:07;25.45;;;6.72;;
52946;SDS011;45776;40.400;17.260;2022-09-09T00:23:38;21.50;;;7.07;;
52946;SDS011;45776;40.400;17.260;2022-09-09T00:31:46;17.83;;;7.15;;
52946;SDS011;45776;40.400;17.260;2022-09-09T00:34:13;26.23;;;6.47;;
52946;SDS011;45776;40.400;17.260;2022-09-09T00:44:32;24.55;;;7.32;;
52946;SDS011;45776;40.400;17.260;2022-09-09T00:50:05;21.08;;;6.63;;
52946;SDS011;45776;40.400;17.260;2022-09-09T00:58:10;25.02;;;6.18;;
52946;SDS011;45776;40.400;17.260;2022-09-09T01:00:47;24.13;;;6.03;;
52946;SDS011;45776;40.400;17.260;2022-09-09T01:03:22;23.77;;;6.38;;
52946;SDS011;45776;40.400;17.260;2022-09-09T01:06:02;20.98;;;6.63;;
52946;SDS011;45776;40.400;17.260;2022-09-09T01:16:58;20.95;;;6.65;;
52946;SDS011;45776;40.400;17.260;2022-09-09T01:22:15;22.67;;;7.35;;
52946;SDS011;45776;40.400;17.260;2022-09-09T01:27:40;23.95;;;7.10;;
52946;SDS011;45776;40.400;17.260;2022-09-09T01:30:10;22.42;;;6.68;;
52946;SDS011;45776;40.400;17.260;2022-09-09T01:35:09;25.13;;;7.40;;
52946;SDS011;45776;40.400;17.260;2022-09-09T01:37:40;22.73;;;7.82;;
52946;SDS011;45776;40.400;17.260;2022-09-09T01:40:06;20.58;;;7.57;;
52946;SDS011;45776;40.400;17.260;2022-09-09T01:42:32;28.67;;;7.43;;
52946;SDS011;45776;40.400;17.260;2022-09-09T01:44:57;23.65;;;6.88;;
52946;SDS011;45776;40.400;17.260;2022-09-09T01:47:23;19.25;;;6.65;;
52946;SDS011;45776;40.400;17.260;2022-09-09T01:49:48;27.00;;;7.75;;
52946;SDS011;45776;40.400;17.260;2022-09-09T01:52:13;24.83;;;7.75;;
52946;SDS011;45776;40.400;17.260;2022-09-09T01:54:39;27.98;;;7.72;;
52946;SDS011;45776;40.400;17.260;2022-09-09T02:00:15;21.88;;;7.78;;
52946;SDS011;45776;40.400;17.260;2022-09-09T02:08:11;23.50;;;7.72;;
52946;SDS011;45776;40.400;17.260;2022-09-09T02:13:11;27.13;;;8.23;;
52946;SDS011;45776;40.400;17.260;2022-09-09T02:15:49;21.77;;;7.95;;
52946;SDS011;45776;40.400;17.260;2022-09-09T02:18:26;19.33;;;7.47;;
52946;SDS011;45776;40.400;17.260;2022-09-09T02:20:55;27.08;;;8.30;;
52946;SDS011;45776;40.400;17.260;2022-09-09T02:23:22;19.35;;;7.72;;
52946;SDS011;45776;40.400;17.260;2022-09-09T02:25:49;21.23;;;7.72;;
52946;SDS011;45776;40.400;17.260;2022-09-09T02:28:17;24.92;;;8.02;;
52946;SDS011;45776;40.400;17.260;2022-09-09T02:30:46;24.85;;;7.90;;
52946;SDS011;45776;40.400;17.260;2022-09-09T02:33:18;21.52;;;7.88;;
52946;SDS011;45776;40.400;17.260;2022-09-09T02:35:45;24.05;;;7.85;;
52946;SDS011;45776;40.400;17.260;2022-09-09T02:38:12;28.08;;;7.80;;
52946;SDS011;45776;40.400;17.260;2022-09-09T02:40:40;24.30;;;8.15;;
52946;SDS011;45776;40.400;17.260;2022-09-09T02:43:05;25.63;;;8.57;;
52946;SDS011;45776;40.400;17.260;2022-09-09T02:45:33;26.05;;;8.15;;
52946;SDS011;45776;40.400;17.260;2022-09-09T02:48:20;24.30;;;7.93;;
52946;SDS011;45776;40.400;17.260;2022-09-09T02:51:06;29.38;;;8.38;;
52946;SDS011;45776;40.400;17.260;2022-09-09T02:53:43;23.90;;;7.65;;
52946;SDS011;45776;40.400;17.260;2022-09-09T02:56:20;32.17;;;9.35;;
52946;SDS011;45776;40.400;17.260;2022-09-09T02:58:50;26.23;;;8.18;;
52946;SDS011;45776;40.400;17.260;2022-09-09T03:01:17;24.65;;;7.63;;
52946;SDS011;45776;40.400;17.260;2022-09-09T03:03:42;25.20;;;8.00;;
52946;SDS011;45776;40.400;17.260;2022-09-09T03:06:09;19.17;;;7.60;;
52946;SDS011;45776;40.400;17.260;2022-09-09T03:08:36;22.13;;;7.70;;
52946;SDS011;45776;40.400;17.260;2022-09-09T03:11:02;20.42;;;7.85;;
52946;SDS011;45776;40.400;17.260;2022-09-09T03:13:28;24.27;;;8.68;;
52946;SDS011;45776;40.400;17.260;2022-09-09T03:15:54;30.08;;;9.57;;
52946;SDS011;45776;40.400;17.260;2022-09-09T03:18:19;30.35;;;9.00;;
52946;SDS011;45776;40.400;17.260;2022-09-09T03:20:45;22.77;;;8.48;;
52946;SDS011;45776;40.400;17.260;2022-09-09T03:23:16;32.17;;;9.50;;
52946;SDS011;45776;40.400;17.260;2022-09-09T03:25:48;22.50;;;9.50;;
52946;SDS011;45776;40.400;17.260;2022-09-09T03:28:14;28.45;;;8.65;;
52946;SDS011;45776;40.400;17.260;2022-09-09T03:30:40;26.48;;;8.77;;
52946;SDS011;45776;40.400;17.260;2022-09-09T03:33:05;22.85;;;9.45;;
52946;SDS011;45776;40.400;17.260;2022-09-09T03:35:31;35.80;;;10.25;;
52946;SDS011;45776;40.400;17.260;2022-09-09T03:37:56;28.95;;;10.02;;
52946;SDS011;45776;40.400;17.260;2022-09-09T03:40:22;24.42;;;9.90;;
52946;SDS011;45776;40.400;17.260;2022-09-09T03:42:47;21.85;;;10.70;;
52946;SDS011;45776;40.400;17.260;2022-09-09T03:45:13;31.42;;;11.25;;
52946;SDS011;45776;40.400;17.260;2022-09-09T03:47:39;27.60;;;11.45;;
52946;SDS011;45776;40.400;17.260;2022-09-09T03:50:05;26.08;;;11.35;;
52946;SDS011;45776;40.400;17.260;2022-09-09T03:52:36;31.55;;;11.40;;
52946;SDS011;45776;40.400;17.260;2022-09-09T03:55:03;25.63;;;10.98;;
52946;SDS011;45776;40.400;17.260;2022-09-09T03:57:29;29.13;;;11.35;;
52946;SDS011;45776;40.400;17.260;2022-09-09T03:59:55;21.67;;;11.73;;
52946;SDS011;45776;40.400;17.260;2022-09-09T04:02:20;29.17;;;11.20;;
52946;SDS011;45776;40.400;17.260;2022-09-09T04:04:46;27.13;;;12.07;;
52946;SDS011;45776;40.400;17.260;2022-09-09T04:07:12;30.40;;;12.20;;
52946;SDS011;45776;40.400;17.260;2022-09-09T04:09:37;24.02;;;12.23;;
52946;SDS011;45776;40.400;17.260;2022-09-09T04:12:03;32.13;;;13.13;;
52946;SDS011;45776;40.400;17.260;2022-09-09T04:14:29;26.25;;;13.18;;
52946;SDS011;45776;40.400;17.260;2022-09-09T04:16:54;26.45;;;12.55;;
52946;SDS011;45776;40.400;17.260;2022-09-09T04:19:22;26.15;;;13.00;;
52946;SDS011;45776;40.400;17.260;2022-09-09T04:21:47;29.35;;;12.38;;
52946;SDS011;45776;40.400;17.260;2022-09-09T04:24:15;27.10;;;12.00;;
52946;SDS011;45776;40.400;17.260;2022-09-09T04:26:42;24.52;;;11.68;;
52946;SDS011;45776;40.400;17.260;2022-09-09T04:29:08;33.17;;;12.35;;
52946;SDS011;45776;40.400;17.260;2022-09-09T04:31:33;24.23;;;11.45;;
52946;SDS011;45776;40.400;17.260;2022-09-09T04:33:59;27.15;;;11.55;;
52946;SDS011;45776;40.400;17.260;2022-09-09T04:36:30;22.65;;;11.23;;
52946;SDS011;45776;40.400;17.260;2022-09-09T04:38:56;24.85;;;12.30;;
52946;SDS011;45776;40.400;17.260;2022-09-09T04:41:22;32.30;;;11.93;;
52946;SDS011;45776;40.400;17.260;2022-09-09T04:43:48;30.45;;;11.85;;
52946;SDS011;45776;40.400;17.260;2022-09-09T04:46:14;25.30;;;11.77;;
52946;SDS011;45776;40.400;17.260;2022-09-09T04:48:42;25.55;;;11.32;;
52946;SDS011;45776;40.400;17.260;2022-09-09T04:51:08;25.38;;;12.15;;
52946;SDS011;45776;40.400;17.260;2022-09-09T04:53:36;32.25;;;11.82;;
52946;SDS011;45776;40.400;17.260;2022-09-09T04:56:07;27.02;;;11.88;;
52946;SDS011;45776;40.400;17.260;2022-09-09T04:58:37;22.42;;;10.73;;
52946;SDS011;45776;40.400;17.260;2022-09-09T05:01:05;25.98;;;10.70;;
52946;SDS011;45776;40.400;17.260;2022-09-09T05:03:35;24.23;;;12.10;;
52946;SDS011;45776;40.400;17.260;2022-09-09T05:06:05;26.27;;;11.52;;
52946;SDS011;45776;40.400;17.260;2022-09-09T05:08:38;31.02;;;12.00;;
52946;SDS011;45776;40.400;17.260;2022-09-09T05:13:50;26.15;;;10.82;;
52946;SDS011;45776;40.400;17.260;2022-09-09T05:16:17;32.38;;;11.95;;
52946;SDS011;45776;40.400;17.260;2022-09-09T05:18:44;32.47;;;11.23;;
52946;SDS011;45776;40.400;17.260;2022-09-09T05:21:11;28.70;;;11.63;;
52946;SDS011;45776;40.400;17.260;2022-09-09T05:23:38;23.20;;;10.38;;
52946;SDS011;45776;40.400;17.260;2022-09-09T05:26:05;24.90;;;11.48;;
52946;SDS011;45776;40.400;17.260;2022-09-09T05:28:33;23.63;;;10.80;;
52946;SDS011;45776;40.400;17.260;2022-09-09T05:31:01;26.10;;;11.90;;
52946;SDS011;45776;40.400;17.260;2022-09-09T05:33:30;28.40;;;12.70;;
52946;SDS011;45776;40.400;17.260;2022-09-09T05:35:57;34.88;;;12.82;;
52946;SDS011;45776;40.400;17.260;2022-09-09T05:38:23;36.72;;;12.15;;
52946;SDS011;45776;40.400;17.260;2022-09-09T05:40:52;29.45;;;11.77;;
52946;SDS011;45776;40.400;17.260;2022-09-09T05:43:19;27.98;;;12.02;;
52946;SDS011;45776;40.400;17.260;2022-09-09T05:45:48;34.53;;;11.20;;
52946;SDS011;45776;40.400;17.260;2022-09-09T05:48:27;29.67;;;11.82;;
52946;SDS011;45776;40.400;17.260;2022-09-09T05:50:54;28.48;;;12.15;;
52946;SDS011;45776;40.400;17.260;2022-09-09T05:53:19;26.77;;;12.15;;
52946;SDS011;45776;40.400;17.260;2022-09-09T05:55:45;24.38;;;11.23;;
52946;SDS011;45776;40.400;17.260;2022-09-09T05:58:11;28.33;;;11.85;;
52946;SDS011;45776;40.400;17.260;2022-09-09T06:00:36;34.53;;;12.05;;
52946;SDS011;45776;40.400;17.260;2022-09-09T06:03:03;27.15;;;11.05;;
52946;SDS011;45776;40.400;17.260;2022-09-09T06:05:29;21.95;;;12.00;;
52946;SDS011;45776;40.400;17.260;2022-09-09T06:07:54;26.75;;;11.10;;
52946;SDS011;45776;40.400;17.260;2022-09-09T06:10:20;27.80;;;11.80;;
52946;SDS011;45776;40.400;17.260;2022-09-09T06:12:46;25.55;;;11.02;;
52946;SDS011;45776;40.400;17.260;2022-09-09T06:15:11;26.35;;;10.90;;
52946;SDS011;45776;40.400;17.260;2022-09-09T06:17:37;25.88;;;9.95;;
52946;SDS011;45776;40.400;17.260;2022-09-09T06:20:04;24.67;;;10.45;;
52946;SDS011;45776;40.400;17.260;2022-09-09T06:22:30;23.67;;;10.07;;
52946;SDS011;45776;40.400;17.260;2022-09-09T06:24:56;19.73;;;9.38;;
52946;SDS011;45776;40.400;17.260;2022-09-09T06:27:21;21.85;;;9.68;;
52946;SDS011;45776;40.400;17.260;2022-09-09T06:29:47;23.90;;;9.57;;
52946;SDS011;45776;40.400;17.260;2022-09-09T06:32:13;21.92;;;8.82;;
52946;SDS011;45776;40.400;17.260;2022-09-09T06:34:38;30.52;;;10.40;;
52946;SDS011;45776;40.400;17.260;2022-09-09T06:37:04;22.00;;;9.25;;
52946;SDS011;45776;40.400;17.260;2022-09-09T06:39:31;20.27;;;9.52;;
52946;SDS011;45776;40.400;17.260;2022-09-09T06:41:57;23.67;;;9.07;;
52946;SDS011;45776;40.400;17.260;2022-09-09T06:44:23;23.08;;;10.25;;
52946;SDS011;45776;40.400;17.260;2022-09-09T06:46:51;24.85;;;9.93;;
52946;SDS011;45776;40.400;17.260;2022-09-09T06:49:17;28.33;;;9.48;;
52946;SDS011;45776;40.400;17.260;2022-09-09T06:51:43;29.55;;;9.48;;
52946;SDS011;45776;40.400;17.260;2022-09-09T06:54:09;21.98;;;9.50;;
52946;SDS011;45776;40.400;17.260;2022-09-09T06:56:37;24.60;;;9.75;;
52946;SDS011;45776;40.400;17.260;2022-09-09T06:59:05;26.08;;;9.32;;
52946;SDS011;45776;40.400;17.260;2022-09-09T07:01:35;29.30;;;10.45;;
52946;SDS011;45776;40.400;17.260;2022-09-09T07:04:02;29.38;;;10.68;;
52946;SDS011;45776;40.400;17.260;2022-09-09T07:06:32;22.40;;;9.70;;
52946;SDS011;45776;40.400;17.260;2022-09-09T07:09:01;29.20;;;9.55;;
52946;SDS011;45776;40.400;17.260;2022-09-09T07:11:33;31.48;;;9.30;;
52946;SDS011;45776;40.400;17.260;2022-09-09T07:14:02;25.55;;;8.90;;
52946;SDS011;45776;40.400;17.260;2022-09-09T07:16:28;26.27;;;9.52;;
52946;SDS011;45776;40.400;17.260;2022-09-09T07:18:54;23.55;;;9.65;;
52946;SDS011;45776;40.400;17.260;2022-09-09T07:21:27;27.25;;;9.10;;
52946;SDS011;45776;40.400;17.260;2022-09-09T07:23:55;21.05;;;9.32;;
52946;SDS011;45776;40.400;17.260;2022-09-09T07:26:21;21.98;;;8.82;;
52946;SDS011;45776;40.400;17.260;2022-09-09T07:28:49;21.10;;;9.13;;
52946;SDS011;45776;40.400;17.260;2022-09-09T07:31:15;25.73;;;9.80;;
52946;SDS011;45776;40.400;17.260;2022-09-09T07:33:45;26.67;;;9.27;;
52946;SDS011;45776;40.400;17.260;2022-09-09T07:36:13;20.73;;;8.98;;
52946;SDS011;45776;40.400;17.260;2022-09-09T07:38:45;22.80;;;8.88;;
52946;SDS011;45776;40.400;17.260;2022-09-09T07:41:22;24.63;;;9.07;;
52946;SDS011;45776;40.400;17.260;2022-09-09T07:43:50;28.98;;;8.80;;
52946;SDS011;45776;40.400;17.260;2022-09-09T07:46:19;18.38;;;8.35;;
52946;SDS011;45776;40.400;17.260;2022-09-09T07:48:46;18.67;;;8.68;;
52946;SDS011;45776;40.400;17.260;2022-09-09T07:51:16;27.67;;;8.70;;
52946;SDS011;45776;40.400;17.260;2022-09-09T07:53:45;22.20;;;8.18;;
52946;SDS011;45776;40.400;17.260;2022-09-09T07:56:15;24.83;;;9.23;;
52946;SDS011;45776;40.400;17.260;2022-09-09T07:58:44;24.15;;;9.02;;
52946;SDS011;45776;40.400;17.260;2022-09-09T08:01:12;19.33;;;8.60;;
52946;SDS011;45776;40.400;17.260;2022-09-09T08:03:41;26.00;;;9.05;;
52946;SDS011;45776;40.400;17.260;2022-09-09T08:06:08;22.88;;;8.98;;
52946;SDS011;45776;40.400;17.260;2022-09-09T08:08:34;25.35;;;8.75;;
52946;SDS011;45776;40.400;17.260;2022-09-09T08:11:05;20.35;;;9.30;;
52946;SDS011;45776;40.400;17.260;2022-09-09T08:13:37;19.48;;;8.75;;
52946;SDS011;45776;40.400;17.260;2022-09-09T08:16:06;22.50;;;9.07;;
52946;SDS011;45776;40.400;17.260;2022-09-09T08:18:34;18.57;;;8.67;;
52946;SDS011;45776;40.400;17.260;2022-09-09T08:21:11;21.48;;;9.07;;
52946;SDS011;45776;40.400;17.260;2022-09-09T08:23:39;22.98;;;9.32;;
52946;SDS011;45776;40.400;17.260;2022-09-09T08:26:10;20.35;;;8.82;;
52946;SDS011;45776;40.400;17.260;2022-09-09T08:28:44;24.42;;;8.57;;
52946;SDS011;45776;40.400;17.260;2022-09-09T08:31:11;27.02;;;8.75;;
52946;SDS011;45776;40.400;17.260;2022-09-09T08:33:41;18.48;;;8.57;;
52946;SDS011;45776;40.400;17.260;2022-09-09T08:36:11;24.48;;;8.30;;
52946;SDS011;45776;40.400;17.260;2022-09-09T08:38:48;25.90;;;10.13;;
52946;SDS011;45776;40.400;17.260;2022-09-09T08:52:25;22.15;;;8.68;;
52946;SDS011;45776;40.400;17.260;2022-09-09T08:54:56;18.52;;;8.23;;
52946;SDS011;45776;40.400;17.260;2022-09-09T08:57:27;27.30;;;8.52;;
52946;SDS011;45776;40.400;17.260;2022-09-09T08:59:54;21.65;;;8.73;;
52946;SDS011;45776;40.400;17.260;2022-09-09T09:05:21;20.63;;;7.85;;
52946;SDS011;45776;40.400;17.260;2022-09-09T09:10:45;22.27;;;8.77;;
52946;SDS011;45776;40.400;17.260;2022-09-09T09:13:14;21.08;;;8.85;;
52946;SDS011;45776;40.400;17.260;2022-09-09T09:16:06;21.13;;;8.70;;
52946;SDS011;45776;40.400;17.260;2022-09-09T09:18:39;17.75;;;8.57;;
52946;SDS011;45776;40.400;17.260;2022-09-09T09:21:32;25.80;;;8.05;;
52946;SDS011;45776;40.400;17.260;2022-09-09T09:24:05;20.55;;;8.38;;
52946;SDS011;45776;40.400;17.260;2022-09-09T09:26:40;20.02;;;6.70;;
52946;SDS011;45776;40.400;17.260;2022-09-09T09:29:10;19.23;;;6.95;;
52946;SDS011;45776;40.400;17.260;2022-09-09T09:31:41;22.38;;;6.20;;
52946;SDS011;45776;40.400;17.260;2022-09-09T09:34:10;16.33;;;7.03;;
52946;SDS011;45776;40.400;17.260;2022-09-09T09:36:41;15.75;;;6.30;;
52946;SDS011;45776;40.400;17.260;2022-09-09T09:39:36;18.30;;;6.65;;
52946;SDS011;45776;40.400;17.260;2022-09-09T09:42:13;20.13;;;7.40;;
52946;SDS011;45776;40.400;17.260;2022-09-09T09:44:39;21.92;;;6.60;;
52946;SDS011;45776;40.400;17.260;2022-09-09T09:47:07;17.10;;;6.93;;
52946;SDS011;45776;40.400;17.260;2022-09-09T09:49:37;19.75;;;6.50;;
52946;SDS011;45776;40.400;17.260;2022-09-09T09:52:03;19.65;;;6.75;;
52946;SDS011;45776;40.400;17.260;2022-09-09T09:54:37;15.48;;;6.25;;
52946;SDS011;45776;40.400;17.260;2022-09-09T09:57:10;18.52;;;6.55;;
52946;SDS011;45776;40.400;17.260;2022-09-09T09:59:39;19.58;;;5.60;;
52946;SDS011;45776;40.400;17.260;2022-09-09T10:02:24;19.90;;;6.03;;
52946;SDS011;45776;40.400;17.260;2022-09-09T10:05:05;18.92;;;5.97;;
52946;SDS011;45776;40.400;17.260;2022-09-09T10:07:37;15.00;;;5.25;;
52946;SDS011;45776;40.400;17.260;2022-09-09T10:10:04;11.85;;;5.38;;
52946;SDS011;45776;40.400;17.260;2022-09-09T10:15:22;19.17;;;6.05;;
52946;SDS011;45776;40.400;17.260;2022-09-09T10:18:04;19.92;;;5.50;;
52946;SDS011;45776;40.400;17.260;2022-09-09T10:20:54;22.10;;;6.05;;
52946;SDS011;45776;40.400;17.260;2022-09-09T10:31:42;16.02;;;5.80;;
52946;SDS011;45776;40.400;17.260;2022-09-09T10:37:11;21.00;;;5.95;;
52946;SDS011;45776;40.400;17.260;2022-09-09T10:42:51;14.45;;;5.63;;
52946;SDS011;45776;40.400;17.260;2022-09-09T10:45:23;18.73;;;5.95;;
52946;SDS011;45776;40.400;17.260;2022-09-09T10:50:46;19.45;;;5.45;;
52946;SDS011;45776;40.400;17.260;2022-09-09T10:56:28;16.13;;;4.72;;
52946;SDS011;45776;40.400;17.260;2022-09-09T10:59:12;19.73;;;4.72;;
52946;SDS011;45776;40.400;17.260;2022-09-09T11:01:59;18.08;;;5.60;;
52946;SDS011;45776;40.400;17.260;2022-09-09T11:04:51;14.77;;;5.60;;
52946;SDS011;45776;40.400;17.260;2022-09-09T11:07:28;20.90;;;5.45;;
52946;SDS011;45776;40.400;17.260;2022-09-09T11:09:58;11.27;;;5.25;;
52946;SDS011;45776;40.400;17.260;2022-09-09T11:15:06;17.52;;;4.72;;
52946;SDS011;45776;40.400;17.260;2022-09-09T11:17:42;18.95;;;5.30;;
52946;SDS011;45776;40.400;17.260;2022-09-09T11:20:12;18.80;;;4.78;;
52946;SDS011;45776;40.400;17.260;2022-09-09T11:25:28;17.38;;;4.85;;
52946;SDS011;45776;40.400;17.260;2022-09-09T11:30:55;20.42;;;4.57;;
52946;SDS011;45776;40.400;17.260;2022-09-09T11:38:52;20.90;;;5.13;;
52946;SDS011;45776;40.400;17.260;2022-09-09T11:41:22;20.00;;;4.47;;
52946;SDS011;45776;40.400;17.260;2022-09-09T11:43:48;17.88;;;5.07;;
52946;SDS011;45776;40.400;17.260;2022-09-09T11:46:17;17.08;;;4.80;;
52946;SDS011;45776;40.400;17.260;2022-09-09T11:49:04;24.02;;;5.38;;
52946;SDS011;45776;40.400;17.260;2022-09-09T11:51:32;19.00;;;4.35;;
52946;SDS011;45776;40.400;17.260;2022-09-09T11:53:59;11.25;;;4.55;;
52946;SDS011;45776;40.400;17.260;2022-09-09T11:56:31;20.88;;;4.07;;
52946;SDS011;45776;40.400;17.260;2022-09-09T11:59:00;14.30;;;4.00;;
52946;SDS011;45776;40.400;17.260;2022-09-09T12:04:15;17.90;;;4.13;;
52946;SDS011;45776;40.400;17.260;2022-09-09T12:06:52;20.17;;;5.05;;
52946;SDS011;45776;40.400;17.260;2022-09-09T12:17:24;14.10;;;3.58;;
52946;SDS011;45776;40.400;17.260;2022-09-09T12:23:42;18.88;;;4.30;;
52946;SDS011;45776;40.400;17.260;2022-09-09T12:26:14;13.63;;;4.13;;
52946;SDS011;45776;40.400;17.260;2022-09-09T12:31:39;19.38;;;5.03;;
52946;SDS011;45776;40.400;17.260;2022-09-09T12:34:17;13.27;;;3.97;;
52946;SDS011;45776;40.400;17.260;2022-09-09T12:37:02;12.32;;;4.55;;
52946;SDS011;45776;40.400;17.260;2022-09-09T12:39:33;16.80;;;4.65;;
52946;SDS011;45776;40.400;17.260;2022-09-09T12:42:02;14.07;;;4.50;;
52946;SDS011;45776;40.400;17.260;2022-09-09T12:44:29;20.23;;;5.63;;
52946;SDS011;45776;40.400;17.260;2022-09-09T12:46:55;16.83;;;5.25;;
52946;SDS011;45776;40.400;17.260;2022-09-09T12:49:37;15.30;;;5.20;;
52946;SDS011;45776;40.400;17.260;2022-09-09T12:52:12;19.02;;;5.35;;
52946;SDS011;45776;40.400;17.260;2022-09-09T12:54:43;17.98;;;5.45;;
52946;SDS011;45776;40.400;17.260;2022-09-09T12:57:16;12.55;;;4.63;;
52946;SDS011;45776;40.400;17.260;2022-09-09T12:59:42;13.68;;;4.40;;
52946;SDS011;45776;40.400;17.260;2022-09-09T13:02:17;16.58;;;4.47;;
52946;SDS011;45776;40.400;17.260;2022-09-09T13:04:45;14.70;;;5.00;;
52946;SDS011;45776;40.400;17.260;2022-09-09T13:07:12;17.95;;;4.47;;
52946;SDS011;45776;40.400;17.260;2022-09-09T13:09:38;16.00;;;4.53;;
52946;SDS011;45776;40.400;17.260;2022-09-09T13:12:05;15.13;;;4.30;;
52946;SDS011;45776;40.400;17.260;2022-09-09T13:14:38;14.68;;;4.40;;
52946;SDS011;45776;40.400;17.260;2022-09-09T13:17:05;17.30;;;3.70;;
52946;SDS011;45776;40.400;17.260;2022-09-09T13:19:38;21.98;;;4.43;;
52946;SDS011;45776;40.400;17.260;2022-09-09T13:24:48;17.98;;;4.15;;
52946;SDS011;45776;40.400;17.260;2022-09-09T13:27:34;18.13;;;3.88;;
52946;SDS011;45776;40.400;17.260;2022-09-09T13:33:20;13.93;;;3.55;;
52946;SDS011;45776;40.400;17.260;2022-09-09T13:35:52;15.48;;;3.97;;
52946;SDS011;45776;40.400;17.260;2022-09-09T13:38:20;17.33;;;4.40;;
52946;SDS011;45776;40.400;17.260;2022-09-09T13:43:46;11.82;;;3.88;;
52946;SDS011;45776;40.400;17.260;2022-09-09T13:48:54;13.93;;;4.10;;
52946;SDS011;45776;40.400;17.260;2022-09-09T13:51:25;15.63;;;3.53;;
52946;SDS011;45776;40.400;17.260;2022-09-09T13:53:56;12.80;;;4.00;;
52946;SDS011;45776;40.400;17.260;2022-09-09T13:56:22;19.42;;;4.97;;
52946;SDS011;45776;40.400;17.260;2022-09-09T13:58:48;19.17;;;4.18;;
52946;SDS011;45776;40.400;17.260;2022-09-09T14:01:13;18.05;;;4.82;;
52946;SDS011;45776;40.400;17.260;2022-09-09T14:03:39;14.13;;;3.95;;
52946;SDS011;45776;40.400;17.260;2022-09-09T14:06:05;14.52;;;3.95;;
52946;SDS011;45776;40.400;17.260;2022-09-09T14:08:30;18.27;;;4.25;;
52946;SDS011;45776;40.400;17.260;2022-09-09T14:11:02;14.25;;;4.20;;
52946;SDS011;45776;40.400;17.260;2022-09-09T14:13:28;15.65;;;3.90;;
52946;SDS011;45776;40.400;17.260;2022-09-09T14:15:53;17.95;;;3.72;;
52946;SDS011;45776;40.400;17.260;2022-09-09T14:18:19;18.10;;;3.80;;
52946;SDS011;45776;40.400;17.260;2022-09-09T14:20:44;16.85;;;3.88;;
52946;SDS011;45776;40.400;17.260;2022-09-09T14:23:11;19.30;;;3.28;;
52946;SDS011;45776;40.400;17.260;2022-09-09T14:25:39;18.23;;;3.20;;
52946;SDS011;45776;40.400;17.260;2022-09-09T14:28:12;17.75;;;3.88;;
52946;SDS011;45776;40.400;17.260;2022-09-09T14:30:39;18.20;;;3.72;;
52946;SDS011;45776;40.400;17.260;2022-09-09T14:33:08;14.98;;;3.25;;
52946;SDS011;45776;40.400;17.260;2022-09-09T14:35:36;21.05;;;3.55;;
52946;SDS011;45776;40.400;17.260;2022-09-09T14:38:01;21.33;;;3.20;;
52946;SDS011;45776;40.400;17.260;2022-09-09T14:40:28;13.23;;;3.88;;
52946;SDS011;45776;40.400;17.260;2022-09-09T14:42:54;16.55;;;3.13;;
52946;SDS011;45776;40.400;17.260;2022-09-09T14:45:20;19.48;;;3.72;;
52946;SDS011;45776;40.400;17.260;2022-09-09T14:47:46;17.20;;;3.13;;
52946;SDS011;45776;40.400;17.260;2022-09-09T14:50:12;16.00;;;3.45;;
52946;SDS011;45776;40.400;17.260;2022-09-09T14:52:38;12.52;;;3.05;;
52946;SDS011;45776;40.400;17.260;2022-09-09T14:55:04;18.33;;;3.70;;
52946;SDS011;45776;40.400;17.260;2022-09-09T14:57:30;16.23;;;3.17;;
52946;SDS011;45776;40.400;17.260;2022-09-09T14:59:56;10.77;;;3.00;;
52946;SDS011;45776;40.400;17.260;2022-09-09T15:02:21;16.48;;;3.40;;
52946;SDS011;45776;40.400;17.260;2022-09-09T15:04:47;16.90;;;3.40;;
52946;SDS011;45776;40.400;17.260;2022-09-09T15:07:15;17.05;;;3.25;;
52946;SDS011;45776;40.400;17.260;2022-09-09T15:09:41;17.15;;;3.90;;
52946;SDS011;45776;40.400;17.260;2022-09-09T15:12:07;19.42;;;3.30;;
52946;SDS011;45776;40.400;17.260;2022-09-09T15:14:32;14.60;;;3.08;;
52946;SDS011;45776;40.400;17.260;2022-09-09T15:16:58;23.13;;;4.60;;
52946;SDS011;45776;40.400;17.260;2022-09-09T15:19:23;15.05;;;3.25;;
52946;SDS011;45776;40.400;17.260;2022-09-09T15:21:49;19.02;;;3.55;;
52946;SDS011;45776;40.400;17.260;2022-09-09T15:24:14;16.35;;;3.17;;
52946;SDS011;45776;40.400;17.260;2022-09-09T15:26:41;18.95;;;2.88;;
52946;SDS011;45776;40.400;17.260;2022-09-09T15:29:07;23.42;;;3.75;;
52946;SDS011;45776;40.400;17.260;2022-09-09T15:31:33;11.65;;;3.13;;
52946;SDS011;45776;40.400;17.260;2022-09-09T15:36:30;14.70;;;3.25;;
52946;SDS011;45776;40.400;17.260;2022-09-09T15:38:57;16.08;;;3.33;;
52946;SDS011;45776;40.400;17.260;2022-09-09T15:41:23;13.80;;;3.78;;
52946;SDS011;45776;40.400;17.260;2022-09-09T15:43:49;16.92;;;3.05;;
52946;SDS011;45776;40.400;17.260;2022-09-09T15:48:42;19.48;;;3.25;;
52946;SDS011;45776;40.400;17.260;2022-09-09T15:51:09;20.42;;;3.78;;
52946;SDS011;45776;40.400;17.260;2022-09-09T15:53:36;15.30;;;3.58;;
52946;SDS011;45776;40.400;17.260;2022-09-09T15:56:04;12.93;;;4.18;;
52946;SDS011;45776;40.400;17.260;2022-09-09T15:58:33;18.27;;;4.15;;
52946;SDS011;45776;40.400;17.260;2022-09-09T16:01:05;19.77;;;3.83;;
52946;SDS011;45776;40.400;17.260;2022-09-09T16:03:36;15.73;;;3.40;;
52946;SDS011;45776;40.400;17.260;2022-09-09T16:06:03;14.90;;;3.78;;
52946;SDS011;45776;40.400;17.260;2022-09-09T16:08:33;15.85;;;4.35;;
52946;SDS011;45776;40.400;17.260;2022-09-09T16:11:09;19.17;;;4.10;;
52946;SDS011;45776;40.400;17.260;2022-09-09T16:13:35;18.38;;;3.90;;
52946;SDS011;45776;40.400;17.260;2022-09-09T16:16:02;18.58;;;4.53;;
52946;SDS011;45776;40.400;17.260;2022-09-09T16:18:39;19.98;;;4.38;;
52946;SDS011;45776;40.400;17.260;2022-09-09T16:21:06;15.23;;;3.78;;
52946;SDS011;45776;40.400;17.260;2022-09-09T16:23:33;16.08;;;3.85;;
52946;SDS011;45776;40.400;17.260;2022-09-09T16:26:02;18.52;;;4.00;;
52946;SDS011;45776;40.400;17.260;2022-09-09T16:28:28;20.48;;;3.92;;
52946;SDS011;45776;40.400;17.260;2022-09-09T16:30:53;16.05;;;4.07;;
52946;SDS011;45776;40.400;17.260;2022-09-09T16:33:19;14.75;;;3.55;;
52946;SDS011;45776;40.400;17.260;2022-09-09T16:35:45;17.23;;;4.78;;
52946;SDS011;45776;40.400;17.260;2022-09-09T16:38:10;16.75;;;3.50;;
52946;SDS011;45776;40.400;17.260;2022-09-09T16:40:37;19.70;;;4.10;;
52946;SDS011;45776;40.400;17.260;2022-09-09T16:43:03;19.35;;;4.43;;
52946;SDS011;45776;40.400;17.260;2022-09-09T16:45:30;22.15;;;4.65;;
52946;SDS011;45776;40.400;17.260;2022-09-09T16:47:57;32.50;;;4.97;;
52946;SDS011;45776;40.400;17.260;2022-09-09T16:50:23;18.88;;;4.65;;
52946;SDS011;45776;40.400;17.260;2022-09-09T16:52:50;19.52;;;4.60;;
52946;SDS011;45776;40.400;17.260;2022-09-09T16:55:16;17.02;;;3.97;;
52946;SDS011;45776;40.400;17.260;2022-09-09T16:57:42;15.20;;;4.05;;
52946;SDS011;45776;40.400;17.260;2022-09-09T17:00:07;20.10;;;4.80;;